עמוד ראשי
METAR-TAF:

METAR-TAF

שדות תעופה :

מאר דל פלאטה, ארגנטינה

קו רוחב: 37-56S, קו אורך: 057-35W, גובה: 18מטר

תצפית מזג אוויר נוכחית

הדו"ח נערך לפני 1 שעות ו 17דקות, בשעה 02:00 UTC
רוח 9קשר מכיוון מערב/דרום-מערב
טמפרטורת 8 צלסיוס
לחות 87%
לחץ 1018 hPa
ראות 10 קילומטר או יותר
ללא עננים שבסיסם נמוך מ 5000 רגל או קומולונימבוס

METAR: SAZM 200200Z 24009KT CAVOK 08/06 Q1018

זמן: 00:17 (03:17 UTC)

תחזית

הדו"ח נערך לפני 4 שעות ו 17דקות, בשעה 23:00 UTC
תחזית בתוקף מ 20 ב 00 UTC עד 20 ב 24 UTC
רוח 5קשר מכיוון דרום/דרום-מערב
ראות 10 קילומטר או יותר
ללא עננים שבסיסם נמוך מ 5000 רגל או קומולונימבוס
הסתברות 40%
20 ב 09 UTC עד 20 ב 12 UTC
ראות: 3000מטר
אד
יעשה מ
20 ב 16 UTC עד 20 ב 18 UTC
רוח 15קשר מכיוון מזרח/צפון-מזרח עם משבים עד 25קשר

TAF: SAZM 192300Z 2000/2024 20005KT CAVOK TX13/2018Z TN02/2011Z PROB40 2009/2012 3000 BR NSC BECMG 2016/2018 07015G25KT

תצפיות ותחזיות מזג אוויר לגבי יותר מ- 4,000 שדות תעופה ברחבי העולם. דוחות METAR ו- TAF.

התחנות הזמינות מסומנות בנקודות צהובות ואדומות על גבי המפה.

העבר את העכבר לנקודה הצבעונית על מנת לראות את שם התחנה.

לאחר מכן, לחץ כדי לראות את תוכן ואת תחזיות מזג האוויר.

כדי לשנות את המפה: לחץ על הכפתורים הירוקים עם הפלוס השחור כדי להתקרב; על הכפתור הירוק עם המקף כדי להתרחק; או בחיצים הירוקים למפות סמוכות.


METAR-TAF: